sensor_id;sensor_type;location;lat;lon;timestamp;temperature;humidity
21167;DHT22;10741;52.272;9.580;2023-04-03T00:01:10;1.10;99.90
21167;DHT22;10741;52.272;9.580;2023-04-03T00:03:36;1.00;99.90
21167;DHT22;10741;52.272;9.580;2023-04-03T00:06:03;1.00;99.90
21167;DHT22;10741;52.272;9.580;2023-04-03T00:08:31;0.90;99.90
21167;DHT22;10741;52.272;9.580;2023-04-03T00:10:58;0.80;99.90
21167;DHT22;10741;52.272;9.580;2023-04-03T00:13:24;0.80;99.90
21167;DHT22;10741;52.272;9.580;2023-04-03T00:15:51;0.70;99.90
21167;DHT22;10741;52.272;9.580;2023-04-03T00:18:17;0.50;99.90
21167;DHT22;10741;52.272;9.580;2023-04-03T00:20:42;0.50;99.90
21167;DHT22;10741;52.272;9.580;2023-04-03T00:23:08;0.60;99.90
21167;DHT22;10741;52.272;9.580;2023-04-03T00:25:34;0.70;99.90
21167;DHT22;10741;52.272;9.580;2023-04-03T00:28:00;0.80;99.90
21167;DHT22;10741;52.272;9.580;2023-04-03T00:30:26;0.80;99.90
21167;DHT22;10741;52.272;9.580;2023-04-03T00:32:52;0.80;99.90
21167;DHT22;10741;52.272;9.580;2023-04-03T00:35:19;0.80;99.90
21167;DHT22;10741;52.272;9.580;2023-04-03T00:37:46;0.70;99.90
21167;DHT22;10741;52.272;9.580;2023-04-03T00:40:13;0.60;99.90
21167;DHT22;10741;52.272;9.580;2023-04-03T00:42:41;0.60;99.90
21167;DHT22;10741;52.272;9.580;2023-04-03T00:47:58;0.40;99.90
21167;DHT22;10741;52.272;9.580;2023-04-03T00:50:27;0.30;99.90
21167;DHT22;10741;52.272;9.580;2023-04-03T00:52:54;0.10;99.90
21167;DHT22;10741;52.272;9.580;2023-04-03T00:55:20;0.00;99.90
21167;DHT22;10741;52.272;9.580;2023-04-03T00:57:47;0.00;99.90
21167;DHT22;10741;52.272;9.580;2023-04-03T01:00:17;-0.10;99.90
21167;DHT22;10741;52.272;9.580;2023-04-03T01:02:43;-0.10;99.90
21167;DHT22;10741;52.272;9.580;2023-04-03T01:05:09;-0.20;99.90
21167;DHT22;10741;52.272;9.580;2023-04-03T01:07:35;-0.30;99.90
21167;DHT22;10741;52.272;9.580;2023-04-03T01:10:06;-0.30;99.90
21167;DHT22;10741;52.272;9.580;2023-04-03T01:12:35;-0.30;99.90
21167;DHT22;10741;52.272;9.580;2023-04-03T01:15:11;-0.30;99.90
21167;DHT22;10741;52.272;9.580;2023-04-03T01:17:41;-0.30;99.90
21167;DHT22;10741;52.272;9.580;2023-04-03T01:25:32;-0.30;99.90
21167;DHT22;10741;52.272;9.580;2023-04-03T01:27:59;-0.40;99.90
21167;DHT22;10741;52.272;9.580;2023-04-03T01:30:30;-0.40;99.90
21167;DHT22;10741;52.272;9.580;2023-04-03T01:32:56;-0.50;99.90
21167;DHT22;10741;52.272;9.580;2023-04-03T01:35:22;-0.50;99.90
21167;DHT22;10741;52.272;9.580;2023-04-03T01:37:48;-0.50;99.90
21167;DHT22;10741;52.272;9.580;2023-04-03T01:40:14;-0.50;99.90
21167;DHT22;10741;52.272;9.580;2023-04-03T01:42:40;-0.60;99.90
21167;DHT22;10741;52.272;9.580;2023-04-03T01:45:06;-0.60;99.90
21167;DHT22;10741;52.272;9.580;2023-04-03T01:47:32;-0.60;99.90
21167;DHT22;10741;52.272;9.580;2023-04-03T01:49:57;-0.60;99.90
21167;DHT22;10741;52.272;9.580;2023-04-03T01:52:23;-0.60;99.90
21167;DHT22;10741;52.272;9.580;2023-04-03T01:54:49;-0.70;99.90
21167;DHT22;10741;52.272;9.580;2023-04-03T01:57:16;-0.70;99.90
21167;DHT22;10741;52.272;9.580;2023-04-03T01:59:42;-0.70;99.90
21167;DHT22;10741;52.272;9.580;2023-04-03T02:02:08;-0.70;99.90
21167;DHT22;10741;52.272;9.580;2023-04-03T02:04:33;-0.70;99.90
21167;DHT22;10741;52.272;9.580;2023-04-03T02:06:59;-0.70;99.90
21167;DHT22;10741;52.272;9.580;2023-04-03T02:09:25;-0.70;99.90
21167;DHT22;10741;52.272;9.580;2023-04-03T02:11:52;-0.80;99.90
21167;DHT22;10741;52.272;9.580;2023-04-03T02:14:18;-0.80;99.90
21167;DHT22;10741;52.272;9.580;2023-04-03T02:16:44;-0.80;99.90
21167;DHT22;10741;52.272;9.580;2023-04-03T02:19:10;-0.90;99.90
21167;DHT22;10741;52.272;9.580;2023-04-03T02:21:36;-0.90;99.90
21167;DHT22;10741;52.272;9.580;2023-04-03T02:24:01;-0.90;99.90
21167;DHT22;10741;52.272;9.580;2023-04-03T02:26:27;-0.90;99.90
21167;DHT22;10741;52.272;9.580;2023-04-03T02:28:53;-0.90;99.90
21167;DHT22;10741;52.272;9.580;2023-04-03T02:31:19;-1.00;99.90
21167;DHT22;10741;52.272;9.580;2023-04-03T02:33:44;-1.00;99.90
21167;DHT22;10741;52.272;9.580;2023-04-03T02:36:10;-1.00;99.90
21167;DHT22;10741;52.272;9.580;2023-04-03T02:38:36;-1.10;99.90
21167;DHT22;10741;52.272;9.580;2023-04-03T02:41:07;-1.00;99.90
21167;DHT22;10741;52.272;9.580;2023-04-03T02:43:33;-1.00;99.90
21167;DHT22;10741;52.272;9.580;2023-04-03T02:45:59;-1.10;99.90
21167;DHT22;10741;52.272;9.580;2023-04-03T02:48:25;-1.10;99.90
21167;DHT22;10741;52.272;9.580;2023-04-03T02:50:52;-1.10;99.90
21167;DHT22;10741;52.272;9.580;2023-04-03T02:53:18;-1.10;99.90
21167;DHT22;10741;52.272;9.580;2023-04-03T02:55:44;-1.10;99.90
21167;DHT22;10741;52.272;9.580;2023-04-03T02:58:10;-1.20;99.90
21167;DHT22;10741;52.272;9.580;2023-04-03T03:00:36;-1.20;99.90
21167;DHT22;10741;52.272;9.580;2023-04-03T03:03:02;-1.30;99.90
21167;DHT22;10741;52.272;9.580;2023-04-03T03:05:28;-1.30;99.90
21167;DHT22;10741;52.272;9.580;2023-04-03T03:07:54;-1.30;99.90
21167;DHT22;10741;52.272;9.580;2023-04-03T03:10:20;-1.30;99.90
21167;DHT22;10741;52.272;9.580;2023-04-03T03:12:46;-1.30;99.90
21167;DHT22;10741;52.272;9.580;2023-04-03T03:15:12;-1.30;99.90
21167;DHT22;10741;52.272;9.580;2023-04-03T03:17:38;-1.30;99.90
21167;DHT22;10741;52.272;9.580;2023-04-03T03:20:05;-1.30;99.90
21167;DHT22;10741;52.272;9.580;2023-04-03T03:22:31;-1.30;99.90
21167;DHT22;10741;52.272;9.580;2023-04-03T03:24:57;-1.40;99.90
21167;DHT22;10741;52.272;9.580;2023-04-03T03:27:23;-1.40;99.90
21167;DHT22;10741;52.272;9.580;2023-04-03T03:29:49;-1.40;99.90
21167;DHT22;10741;52.272;9.580;2023-04-03T03:32:15;-1.40;99.90
21167;DHT22;10741;52.272;9.580;2023-04-03T03:34:40;-1.40;99.90
21167;DHT22;10741;52.272;9.580;2023-04-03T03:37:06;-1.40;99.90
21167;DHT22;10741;52.272;9.580;2023-04-03T03:39:32;-1.40;99.90
21167;DHT22;10741;52.272;9.580;2023-04-03T03:41:58;-1.50;99.90
21167;DHT22;10741;52.272;9.580;2023-04-03T03:44:23;-1.50;99.90
21167;DHT22;10741;52.272;9.580;2023-04-03T03:46:49;-1.50;99.90
21167;DHT22;10741;52.272;9.580;2023-04-03T03:49:15;-1.50;99.90
21167;DHT22;10741;52.272;9.580;2023-04-03T03:51:41;-1.60;99.90
21167;DHT22;10741;52.272;9.580;2023-04-03T03:54:07;-1.60;99.90
21167;DHT22;10741;52.272;9.580;2023-04-03T03:56:33;-1.60;99.90
21167;DHT22;10741;52.272;9.580;2023-04-03T03:58:59;-1.70;99.90
21167;DHT22;10741;52.272;9.580;2023-04-03T04:01:25;-1.70;99.90
21167;DHT22;10741;52.272;9.580;2023-04-03T04:03:51;-1.70;99.90
21167;DHT22;10741;52.272;9.580;2023-04-03T04:06:19;-1.70;99.90
21167;DHT22;10741;52.272;9.580;2023-04-03T04:08:45;-1.80;99.90
21167;DHT22;10741;52.272;9.580;2023-04-03T04:11:10;-1.80;99.90
21167;DHT22;10741;52.272;9.580;2023-04-03T04:13:36;-1.80;99.90
21167;DHT22;10741;52.272;9.580;2023-04-03T04:16:02;-1.80;99.90
21167;DHT22;10741;52.272;9.580;2023-04-03T04:18:28;-1.80;99.90
21167;DHT22;10741;52.272;9.580;2023-04-03T04:20:54;-1.90;99.90
21167;DHT22;10741;52.272;9.580;2023-04-03T04:23:26;-1.90;99.90
21167;DHT22;10741;52.272;9.580;2023-04-03T04:25:52;-2.00;99.90
21167;DHT22;10741;52.272;9.580;2023-04-03T04:28:18;-2.00;99.90
21167;DHT22;10741;52.272;9.580;2023-04-03T04:30:44;-2.00;99.90
21167;DHT22;10741;52.272;9.580;2023-04-03T04:33:10;-2.00;99.90
21167;DHT22;10741;52.272;9.580;2023-04-03T04:35:36;-2.10;99.90
21167;DHT22;10741;52.272;9.580;2023-04-03T04:38:02;-2.00;99.90
21167;DHT22;10741;52.272;9.580;2023-04-03T04:40:28;-2.00;99.90
21167;DHT22;10741;52.272;9.580;2023-04-03T04:42:54;-2.00;99.90
21167;DHT22;10741;52.272;9.580;2023-04-03T04:45:20;-2.00;99.90
21167;DHT22;10741;52.272;9.580;2023-04-03T04:47:46;-2.00;99.90
21167;DHT22;10741;52.272;9.580;2023-04-03T04:50:12;-2.00;99.90
21167;DHT22;10741;52.272;9.580;2023-04-03T04:52:38;-2.00;99.90
21167;DHT22;10741;52.272;9.580;2023-04-03T04:55:04;-2.00;99.90
21167;DHT22;10741;52.272;9.580;2023-04-03T04:57:30;-2.00;99.90
21167;DHT22;10741;52.272;9.580;2023-04-03T04:59:56;-2.00;99.90
21167;DHT22;10741;52.272;9.580;2023-04-03T05:02:21;-1.90;99.90
21167;DHT22;10741;52.272;9.580;2023-04-03T05:04:47;-1.90;99.90
21167;DHT22;10741;52.272;9.580;2023-04-03T05:07:15;-1.90;99.90
21167;DHT22;10741;52.272;9.580;2023-04-03T05:09:41;-1.90;99.90
21167;DHT22;10741;52.272;9.580;2023-04-03T05:12:07;-1.90;99.90
21167;DHT22;10741;52.272;9.580;2023-04-03T05:14:33;-1.90;99.90
21167;DHT22;10741;52.272;9.580;2023-04-03T05:16:59;-1.90;99.90
21167;DHT22;10741;52.272;9.580;2023-04-03T05:19:25;-1.80;99.90
21167;DHT22;10741;52.272;9.580;2023-04-03T05:21:50;-1.80;99.90
21167;DHT22;10741;52.272;9.580;2023-04-03T05:24:16;-1.80;99.90
21167;DHT22;10741;52.272;9.580;2023-04-03T05:26:42;-1.80;99.90
21167;DHT22;10741;52.272;9.580;2023-04-03T05:29:08;-1.80;99.90
21167;DHT22;10741;52.272;9.580;2023-04-03T05:31:34;-1.70;99.90
21167;DHT22;10741;52.272;9.580;2023-04-03T05:34:00;-1.70;99.90
21167;DHT22;10741;52.272;9.580;2023-04-03T05:36:26;-1.60;99.90
21167;DHT22;10741;52.272;9.580;2023-04-03T05:38:52;-1.60;99.90
21167;DHT22;10741;52.272;9.580;2023-04-03T05:41:19;-1.50;99.90
21167;DHT22;10741;52.272;9.580;2023-04-03T05:43:46;-1.40;99.90
21167;DHT22;10741;52.272;9.580;2023-04-03T05:46:13;-1.40;99.90
21167;DHT22;10741;52.272;9.580;2023-04-03T05:48:40;-1.30;99.90
21167;DHT22;10741;52.272;9.580;2023-04-03T05:51:06;-1.30;99.90
21167;DHT22;10741;52.272;9.580;2023-04-03T05:53:35;-1.20;99.90
21167;DHT22;10741;52.272;9.580;2023-04-03T05:56:03;-1.10;99.90
21167;DHT22;10741;52.272;9.580;2023-04-03T05:58:28;-1.00;99.90
21167;DHT22;10741;52.272;9.580;2023-04-03T06:00:54;-0.90;99.90
21167;DHT22;10741;52.272;9.580;2023-04-03T06:03:20;-0.80;99.90
21167;DHT22;10741;52.272;9.580;2023-04-03T06:05:46;-0.70;99.90
21167;DHT22;10741;52.272;9.580;2023-04-03T06:08:12;-0.50;99.90
21167;DHT22;10741;52.272;9.580;2023-04-03T06:10:38;-0.40;99.90
21167;DHT22;10741;52.272;9.580;2023-04-03T06:13:04;-0.20;99.90
21167;DHT22;10741;52.272;9.580;2023-04-03T06:15:30;-0.10;99.90
21167;DHT22;10741;52.272;9.580;2023-04-03T06:17:55;0.00;99.90
21167;DHT22;10741;52.272;9.580;2023-04-03T06:20:21;0.10;99.90
21167;DHT22;10741;52.272;9.580;2023-04-03T06:22:47;0.30;99.90
21167;DHT22;10741;52.272;9.580;2023-04-03T06:25:14;0.40;99.90
21167;DHT22;10741;52.272;9.580;2023-04-03T06:27:40;0.50;99.90
21167;DHT22;10741;52.272;9.580;2023-04-03T06:30:06;0.60;99.90
21167;DHT22;10741;52.272;9.580;2023-04-03T06:32:33;0.70;99.90
21167;DHT22;10741;52.272;9.580;2023-04-03T06:34:59;0.80;99.90
21167;DHT22;10741;52.272;9.580;2023-04-03T06:37:25;0.90;99.90
21167;DHT22;10741;52.272;9.580;2023-04-03T06:39:51;0.90;99.90
21167;DHT22;10741;52.272;9.580;2023-04-03T06:42:18;1.10;99.90
21167;DHT22;10741;52.272;9.580;2023-04-03T06:44:43;1.10;99.90
21167;DHT22;10741;52.272;9.580;2023-04-03T06:47:14;1.30;99.90
21167;DHT22;10741;52.272;9.580;2023-04-03T06:49:40;1.40;99.90
21167;DHT22;10741;52.272;9.580;2023-04-03T06:52:07;1.40;99.90
21167;DHT22;10741;52.272;9.580;2023-04-03T06:54:33;1.60;99.90
21167;DHT22;10741;52.272;9.580;2023-04-03T06:56:58;1.70;99.90
21167;DHT22;10741;52.272;9.580;2023-04-03T06:59:25;1.80;99.90
21167;DHT22;10741;52.272;9.580;2023-04-03T07:01:51;1.90;99.90
21167;DHT22;10741;52.272;9.580;2023-04-03T07:04:17;2.00;99.90
21167;DHT22;10741;52.272;9.580;2023-04-03T07:06:44;2.10;99.90
21167;DHT22;10741;52.272;9.580;2023-04-03T07:09:10;2.10;99.90
21167;DHT22;10741;52.272;9.580;2023-04-03T07:11:36;2.20;99.90
21167;DHT22;10741;52.272;9.580;2023-04-03T07:14:02;2.40;99.90
21167;DHT22;10741;52.272;9.580;2023-04-03T07:16:28;2.40;99.90
21167;DHT22;10741;52.272;9.580;2023-04-03T07:18:56;2.50;99.90
21167;DHT22;10741;52.272;9.580;2023-04-03T07:21:23;2.50;99.90
21167;DHT22;10741;52.272;9.580;2023-04-03T07:23:49;2.60;99.90
21167;DHT22;10741;52.272;9.580;2023-04-03T07:26:14;2.80;99.90
21167;DHT22;10741;52.272;9.580;2023-04-03T07:28:40;3.00;99.90
21167;DHT22;10741;52.272;9.580;2023-04-03T07:31:10;3.10;99.90
21167;DHT22;10741;52.272;9.580;2023-04-03T07:33:37;3.50;99.90
21167;DHT22;10741;52.272;9.580;2023-04-03T07:36:04;3.80;99.90
21167;DHT22;10741;52.272;9.580;2023-04-03T07:38:30;4.30;99.90
21167;DHT22;10741;52.272;9.580;2023-04-03T07:40:56;4.70;99.90
21167;DHT22;10741;52.272;9.580;2023-04-03T07:43:22;5.20;99.90
21167;DHT22;10741;52.272;9.580;2023-04-03T07:45:48;5.40;99.90
21167;DHT22;10741;52.272;9.580;2023-04-03T07:48:22;6.00;99.90
21167;DHT22;10741;52.272;9.580;2023-04-03T07:50:48;6.70;99.90
21167;DHT22;10741;52.272;9.580;2023-04-03T07:53:14;7.10;99.90
21167;DHT22;10741;52.272;9.580;2023-04-03T07:55:41;7.60;99.90
21167;DHT22;10741;52.272;9.580;2023-04-03T07:58:15;7.50;99.90
21167;DHT22;10741;52.272;9.580;2023-04-03T08:00:42;7.50;99.90
21167;DHT22;10741;52.272;9.580;2023-04-03T08:03:10;8.00;99.90
21167;DHT22;10741;52.272;9.580;2023-04-03T08:05:38;8.50;99.90
21167;DHT22;10741;52.272;9.580;2023-04-03T08:08:05;8.50;99.90
21167;DHT22;10741;52.272;9.580;2023-04-03T08:10:31;8.90;99.90
21167;DHT22;10741;52.272;9.580;2023-04-03T08:12:57;8.60;99.90
21167;DHT22;10741;52.272;9.580;2023-04-03T08:15:23;8.60;99.90
21167;DHT22;10741;52.272;9.580;2023-04-03T08:17:49;8.50;99.90
21167;DHT22;10741;52.272;9.580;2023-04-03T08:20:16;8.90;99.90
21167;DHT22;10741;52.272;9.580;2023-04-03T08:22:41;9.10;99.90
21167;DHT22;10741;52.272;9.580;2023-04-03T08:25:08;9.20;99.90
21167;DHT22;10741;52.272;9.580;2023-04-03T08:27:33;9.10;99.90
21167;DHT22;10741;52.272;9.580;2023-04-03T08:29:59;9.30;99.90
21167;DHT22;10741;52.272;9.580;2023-04-03T08:32:26;9.50;99.90
21167;DHT22;10741;52.272;9.580;2023-04-03T08:34:52;8.40;99.90
21167;DHT22;10741;52.272;9.580;2023-04-03T08:37:18;8.40;99.90
21167;DHT22;10741;52.272;9.580;2023-04-03T08:39:45;8.60;99.90
21167;DHT22;10741;52.272;9.580;2023-04-03T08:45:15;9.10;99.90
21167;DHT22;10741;52.272;9.580;2023-04-03T08:50:20;10.70;99.90
21167;DHT22;10741;52.272;9.580;2023-04-03T08:52:55;10.80;99.90
21167;DHT22;10741;52.272;9.580;2023-04-03T09:00:43;10.80;99.90
21167;DHT22;10741;52.272;9.580;2023-04-03T09:03:16;11.40;99.90
21167;DHT22;10741;52.272;9.580;2023-04-03T09:21:43;10.10;99.90
21167;DHT22;10741;52.272;9.580;2023-04-03T09:24:12;9.70;99.90
21167;DHT22;10741;52.272;9.580;2023-04-03T09:26:46;10.00;99.90
21167;DHT22;10741;52.272;9.580;2023-04-03T09:29:23;10.20;99.90
21167;DHT22;10741;52.272;9.580;2023-04-03T09:31:56;9.60;99.90
21167;DHT22;10741;52.272;9.580;2023-04-03T09:34:33;9.00;99.90
21167;DHT22;10741;52.272;9.580;2023-04-03T09:37:03;8.40;99.90
21167;DHT22;10741;52.272;9.580;2023-04-03T09:39:46;8.10;99.90
21167;DHT22;10741;52.272;9.580;2023-04-03T09:42:19;7.60;99.90
21167;DHT22;10741;52.272;9.580;2023-04-03T09:44:54;7.70;99.90
21167;DHT22;10741;52.272;9.580;2023-04-03T09:47:30;7.60;99.90
21167;DHT22;10741;52.272;9.580;2023-04-03T09:52:45;8.80;99.90
21167;DHT22;10741;52.272;9.580;2023-04-03T09:55:21;9.30;99.90
21167;DHT22;10741;52.272;9.580;2023-04-03T09:57:53;9.90;99.20
21167;DHT22;10741;52.272;9.580;2023-04-03T10:02:55;9.40;99.60
21167;DHT22;10741;52.272;9.580;2023-04-03T10:08:19;9.20;99.90
21167;DHT22;10741;52.272;9.580;2023-04-03T10:10:47;8.50;99.00
21167;DHT22;10741;52.272;9.580;2023-04-03T10:13:18;7.80;99.90
21167;DHT22;10741;52.272;9.580;2023-04-03T10:15:51;7.50;99.90
21167;DHT22;10741;52.272;9.580;2023-04-03T10:22:20;7.30;99.90
21167;DHT22;10741;52.272;9.580;2023-04-03T10:27:02;8.30;99.90
21167;DHT22;10741;52.272;9.580;2023-04-03T10:34:45;9.40;99.20
21167;DHT22;10741;52.272;9.580;2023-04-03T10:40:09;8.60;99.30
21167;DHT22;10741;52.272;9.580;2023-04-03T10:43:02;7.80;99.90
21167;DHT22;10741;52.272;9.580;2023-04-03T10:45:57;7.60;99.70
21167;DHT22;10741;52.272;9.580;2023-04-03T10:54:05;8.10;98.90
21167;DHT22;10741;52.272;9.580;2023-04-03T10:57:01;8.80;97.80
21167;DHT22;10741;52.272;9.580;2023-04-03T10:59:43;9.80;96.20
21167;DHT22;10741;52.272;9.580;2023-04-03T11:02:23;10.10;93.90
21167;DHT22;10741;52.272;9.580;2023-04-03T11:04:55;9.60;95.20
21167;DHT22;10741;52.272;9.580;2023-04-03T11:07:43;9.30;96.20
21167;DHT22;10741;52.272;9.580;2023-04-03T11:10:20;10.00;95.80
21167;DHT22;10741;52.272;9.580;2023-04-03T11:12:52;10.50;95.90
21167;DHT22;10741;52.272;9.580;2023-04-03T11:15:20;10.30;94.20
21167;DHT22;10741;52.272;9.580;2023-04-03T11:18:06;9.40;93.30
21167;DHT22;10741;52.272;9.580;2023-04-03T11:20:35;8.50;95.80
21167;DHT22;10741;52.272;9.580;2023-04-03T11:23:20;8.10;96.70
21167;DHT22;10741;52.272;9.580;2023-04-03T11:25:50;9.10;95.50
21167;DHT22;10741;52.272;9.580;2023-04-03T11:28:17;10.10;95.40
21167;DHT22;10741;52.272;9.580;2023-04-03T11:30:52;10.90;93.80
21167;DHT22;10741;52.272;9.580;2023-04-03T11:36:26;11.90;90.70
21167;DHT22;10741;52.272;9.580;2023-04-03T11:39:01;12.10;90.10
21167;DHT22;10741;52.272;9.580;2023-04-03T11:41:30;12.20;91.50
21167;DHT22;10741;52.272;9.580;2023-04-03T11:43:58;12.50;90.20
21167;DHT22;10741;52.272;9.580;2023-04-03T11:46:57;13.00;88.40
21167;DHT22;10741;52.272;9.580;2023-04-03T11:49:58;13.30;88.70
21167;DHT22;10741;52.272;9.580;2023-04-03T11:58:04;13.40;84.30
21167;DHT22;10741;52.272;9.580;2023-04-03T12:00:50;12.40;85.70
21167;DHT22;10741;52.272;9.580;2023-04-03T12:24:04;8.70;93.00
21167;DHT22;10741;52.272;9.580;2023-04-03T12:29:27;8.50;93.80
21167;DHT22;10741;52.272;9.580;2023-04-03T12:45:20;9.90;94.20
21167;DHT22;10741;52.272;9.580;2023-04-03T12:47:49;9.80;93.90
21167;DHT22;10741;52.272;9.580;2023-04-03T12:50:27;10.40;94.40
21167;DHT22;10741;52.272;9.580;2023-04-03T12:53:05;10.90;91.00
21167;DHT22;10741;52.272;9.580;2023-04-03T12:55:32;10.40;93.40
21167;DHT22;10741;52.272;9.580;2023-04-03T12:58:13;9.80;91.30
21167;DHT22;10741;52.272;9.580;2023-04-03T13:00:40;9.60;93.20
21167;DHT22;10741;52.272;9.580;2023-04-03T13:03:21;9.70;92.30
21167;DHT22;10741;52.272;9.580;2023-04-03T13:05:48;9.70;92.70
21167;DHT22;10741;52.272;9.580;2023-04-03T13:08:14;9.50;92.60
21167;DHT22;10741;52.272;9.580;2023-04-03T13:10:58;9.30;92.60
21167;DHT22;10741;52.272;9.580;2023-04-03T13:13:25;9.20;92.70
21167;DHT22;10741;52.272;9.580;2023-04-03T13:15:52;9.00;94.60
21167;DHT22;10741;52.272;9.580;2023-04-03T13:20:53;9.10;93.00
21167;DHT22;10741;52.272;9.580;2023-04-03T13:23:22;10.80;94.80
21167;DHT22;10741;52.272;9.580;2023-04-03T13:25:49;12.40;91.30
21167;DHT22;10741;52.272;9.580;2023-04-03T13:28:20;12.20;87.60
21167;DHT22;10741;52.272;9.580;2023-04-03T13:33:27;14.20;89.00
21167;DHT22;10741;52.272;9.580;2023-04-03T13:36:21;14.20;82.40
21167;DHT22;10741;52.272;9.580;2023-04-03T13:39:00;13.50;85.50
21167;DHT22;10741;52.272;9.580;2023-04-03T13:41:39;14.00;80.90
21167;DHT22;10741;52.272;9.580;2023-04-03T13:46:51;14.30;78.50
21167;DHT22;10741;52.272;9.580;2023-04-03T13:49:31;14.10;81.20
21167;DHT22;10741;52.272;9.580;2023-04-03T13:51:58;14.50;79.80
21167;DHT22;10741;52.272;9.580;2023-04-03T13:54:30;14.40;81.40
21167;DHT22;10741;52.272;9.580;2023-04-03T13:56:58;13.60;80.60
21167;DHT22;10741;52.272;9.580;2023-04-03T13:59:31;12.80;81.70
21167;DHT22;10741;52.272;9.580;2023-04-03T14:04:47;14.40;81.80
21167;DHT22;10741;52.272;9.580;2023-04-03T14:07:15;14.60;70.20
21167;DHT22;10741;52.272;9.580;2023-04-03T14:09:42;14.30;74.70
21167;DHT22;10741;52.272;9.580;2023-04-03T14:12:17;14.60;74.40
21167;DHT22;10741;52.272;9.580;2023-04-03T14:14:43;14.70;80.90
21167;DHT22;10741;52.272;9.580;2023-04-03T14:17:21;13.90;76.50
21167;DHT22;10741;52.272;9.580;2023-04-03T14:19:48;12.80;76.50
21167;DHT22;10741;52.272;9.580;2023-04-03T14:22:24;12.10;78.70
21167;DHT22;10741;52.272;9.580;2023-04-03T14:24:51;11.50;79.90
21167;DHT22;10741;52.272;9.580;2023-04-03T14:27:23;11.00;82.40
21167;DHT22;10741;52.272;9.580;2023-04-03T14:29:50;10.50;83.60
21167;DHT22;10741;52.272;9.580;2023-04-03T14:32:19;10.10;86.00
21167;DHT22;10741;52.272;9.580;2023-04-03T14:34:45;9.80;86.60
21167;DHT22;10741;52.272;9.580;2023-04-03T14:37:14;9.60;87.90
21167;DHT22;10741;52.272;9.580;2023-04-03T14:39:42;9.30;89.30
21167;DHT22;10741;52.272;9.580;2023-04-03T14:42:20;9.60;90.70
21167;DHT22;10741;52.272;9.580;2023-04-03T14:44:46;9.80;90.40
21167;DHT22;10741;52.272;9.580;2023-04-03T14:47:14;11.10;87.50
21167;DHT22;10741;52.272;9.580;2023-04-03T14:49:41;12.10;84.60
21167;DHT22;10741;52.272;9.580;2023-04-03T14:52:25;12.90;80.90
21167;DHT22;10741;52.272;9.580;2023-04-03T14:54:52;12.80;79.50
21167;DHT22;10741;52.272;9.580;2023-04-03T14:57:18;13.00;79.40
21167;DHT22;10741;52.272;9.580;2023-04-03T14:59:45;13.40;76.80
21167;DHT22;10741;52.272;9.580;2023-04-03T15:04:56;13.40;79.40
21167;DHT22;10741;52.272;9.580;2023-04-03T15:07:24;13.20;76.20
21167;DHT22;10741;52.272;9.580;2023-04-03T15:09:50;13.30;75.80
21167;DHT22;10741;52.272;9.580;2023-04-03T15:12:16;13.00;74.30
21167;DHT22;10741;52.272;9.580;2023-04-03T15:14:42;12.80;78.40
21167;DHT22;10741;52.272;9.580;2023-04-03T15:17:16;12.60;79.80
21167;DHT22;10741;52.272;9.580;2023-04-03T15:19:42;12.40;78.70
21167;DHT22;10741;52.272;9.580;2023-04-03T15:22:17;12.70;77.40
21167;DHT22;10741;52.272;9.580;2023-04-03T15:24:44;12.80;78.60
21167;DHT22;10741;52.272;9.580;2023-04-03T15:27:11;12.50;79.00
21167;DHT22;10741;52.272;9.580;2023-04-03T15:29:38;12.00;81.10
21167;DHT22;10741;52.272;9.580;2023-04-03T15:32:05;11.20;83.10
21167;DHT22;10741;52.272;9.580;2023-04-03T15:34:31;10.50;84.70
21167;DHT22;10741;52.272;9.580;2023-04-03T15:36:57;9.70;85.70
21167;DHT22;10741;52.272;9.580;2023-04-03T15:39:24;9.40;88.10
21167;DHT22;10741;52.272;9.580;2023-04-03T15:41:51;9.60;89.60
21167;DHT22;10741;52.272;9.580;2023-04-03T15:44:18;9.90;87.40
21167;DHT22;10741;52.272;9.580;2023-04-03T15:46:45;10.20;87.30
21167;DHT22;10741;52.272;9.580;2023-04-03T15:49:12;10.40;86.20
21167;DHT22;10741;52.272;9.580;2023-04-03T15:51:38;10.00;84.90
21167;DHT22;10741;52.272;9.580;2023-04-03T15:54:04;9.40;84.70
21167;DHT22;10741;52.272;9.580;2023-04-03T15:56:30;8.90;86.80
21167;DHT22;10741;52.272;9.580;2023-04-03T15:58:56;9.00;87.90
21167;DHT22;10741;52.272;9.580;2023-04-03T16:01:22;8.90;89.60
21167;DHT22;10741;52.272;9.580;2023-04-03T16:03:47;9.10;89.40
21167;DHT22;10741;52.272;9.580;2023-04-03T16:06:18;9.10;89.60
21167;DHT22;10741;52.272;9.580;2023-04-03T16:08:44;9.00;90.40
21167;DHT22;10741;52.272;9.580;2023-04-03T16:11:11;9.20;90.00
21167;DHT22;10741;52.272;9.580;2023-04-03T16:13:37;9.20;89.70
21167;DHT22;10741;52.272;9.580;2023-04-03T16:16:03;9.40;90.00
21167;DHT22;10741;52.272;9.580;2023-04-03T16:18:30;9.30;89.20
21167;DHT22;10741;52.272;9.580;2023-04-03T16:20:56;9.40;90.40
21167;DHT22;10741;52.272;9.580;2023-04-03T16:23:23;9.60;90.00
21167;DHT22;10741;52.272;9.580;2023-04-03T16:25:49;9.80;90.10
21167;DHT22;10741;52.272;9.580;2023-04-03T16:28:17;9.90;88.00
21167;DHT22;10741;52.272;9.580;2023-04-03T16:30:44;9.80;88.90
21167;DHT22;10741;52.272;9.580;2023-04-03T16:33:12;9.60;88.90
21167;DHT22;10741;52.272;9.580;2023-04-03T16:35:38;9.30;90.00
21167;DHT22;10741;52.272;9.580;2023-04-03T16:38:04;8.80;88.60
21167;DHT22;10741;52.272;9.580;2023-04-03T16:40:30;8.40;90.60
21167;DHT22;10741;52.272;9.580;2023-04-03T16:42:55;8.30;90.80
21167;DHT22;10741;52.272;9.580;2023-04-03T16:45:21;8.00;91.30
21167;DHT22;10741;52.272;9.580;2023-04-03T16:47:47;7.70;92.10
21167;DHT22;10741;52.272;9.580;2023-04-03T16:50:13;7.60;91.50
21167;DHT22;10741;52.272;9.580;2023-04-03T16:52:39;7.50;92.80
21167;DHT22;10741;52.272;9.580;2023-04-03T16:55:06;7.50;93.20
21167;DHT22;10741;52.272;9.580;2023-04-03T16:57:32;7.40;94.40
21167;DHT22;10741;52.272;9.580;2023-04-03T16:59:58;7.20;94.50
21167;DHT22;10741;52.272;9.580;2023-04-03T17:02:24;7.40;95.10
21167;DHT22;10741;52.272;9.580;2023-04-03T17:04:51;7.50;95.60
21167;DHT22;10741;52.272;9.580;2023-04-03T17:07:22;7.60;95.20
21167;DHT22;10741;52.272;9.580;2023-04-03T17:09:48;7.60;93.60
21167;DHT22;10741;52.272;9.580;2023-04-03T17:12:14;7.70;93.00
21167;DHT22;10741;52.272;9.580;2023-04-03T17:14:40;8.00;92.70
21167;DHT22;10741;52.272;9.580;2023-04-03T17:17:06;7.90;92.60
21167;DHT22;10741;52.272;9.580;2023-04-03T17:19:34;7.60;92.70
21167;DHT22;10741;52.272;9.580;2023-04-03T17:22:00;7.50;92.90
21167;DHT22;10741;52.272;9.580;2023-04-03T17:24:26;7.30;93.20
21167;DHT22;10741;52.272;9.580;2023-04-03T17:26:52;7.10;92.90
21167;DHT22;10741;52.272;9.580;2023-04-03T17:29:18;7.00;93.60
21167;DHT22;10741;52.272;9.580;2023-04-03T17:31:44;6.90;93.60
21167;DHT22;10741;52.272;9.580;2023-04-03T17:34:09;6.80;94.40
21167;DHT22;10741;52.272;9.580;2023-04-03T17:36:38;6.70;94.70
21167;DHT22;10741;52.272;9.580;2023-04-03T17:39:04;6.60;95.00
21167;DHT22;10741;52.272;9.580;2023-04-03T17:41:30;6.50;95.90
21167;DHT22;10741;52.272;9.580;2023-04-03T17:43:56;6.40;96.00
21167;DHT22;10741;52.272;9.580;2023-04-03T17:46:23;6.30;97.00